sensor_id;sensor_type;location;lat;lon;timestamp;pressure;altitude;pressure_sealevel;temperature;humidity
13033;BME280;6583;42.632;23.298;2023-04-29T00:02:16;70985.69;;;-146.40;55.43
13033;BME280;6583;42.632;23.298;2023-04-29T00:04:43;70995.81;;;-146.40;55.19
13033;BME280;6583;42.632;23.298;2023-04-29T00:07:11;70999.88;;;-146.40;55.65
13033;BME280;6583;42.632;23.298;2023-04-29T00:09:40;71009.97;;;-146.40;56.32
13033;BME280;6583;42.632;23.298;2023-04-29T00:12:07;70995.81;;;-146.40;57.36
13033;BME280;6583;42.632;23.298;2023-04-29T00:14:34;70983.69;;;-146.40;56.66
13033;BME280;6583;42.632;23.298;2023-04-29T00:17:00;70979.63;;;-146.40;56.94
13033;BME280;6583;42.632;23.298;2023-04-29T00:19:27;70967.50;;;-146.40;55.94
13033;BME280;6583;42.632;23.298;2023-04-29T00:21:54;70969.50;;;-146.40;54.98
13033;BME280;6583;42.632;23.298;2023-04-29T00:24:22;70971.53;;;-146.40;55.48
13033;BME280;6583;42.632;23.298;2023-04-29T00:26:49;70973.56;;;-146.40;55.02
13033;BME280;6583;42.632;23.298;2023-04-29T00:29:16;70963.44;;;-146.40;54.02
13033;BME280;6583;42.632;23.298;2023-04-29T00:31:43;70963.44;;;-146.40;53.87
13033;BME280;6583;42.632;23.298;2023-04-29T00:34:10;70969.50;;;-146.40;54.42
13033;BME280;6583;42.632;23.298;2023-04-29T00:36:37;70973.56;;;-146.40;54.48
13033;BME280;6583;42.632;23.298;2023-04-29T00:39:03;70959.41;;;-146.40;54.15
13033;BME280;6583;42.632;23.298;2023-04-29T00:41:31;70961.41;;;-146.40;54.21
13033;BME280;6583;42.632;23.298;2023-04-29T00:43:58;70967.50;;;-146.40;53.93
13033;BME280;6583;42.632;23.298;2023-04-29T00:46:25;70971.53;;;-146.40;54.00
13033;BME280;6583;42.632;23.298;2023-04-29T00:48:52;70983.69;;;-146.40;54.66
13033;BME280;6583;42.632;23.298;2023-04-29T00:51:18;71009.97;;;-146.40;54.30
13033;BME280;6583;42.632;23.298;2023-04-29T00:53:45;71042.34;;;-146.40;54.94
13033;BME280;6583;42.632;23.298;2023-04-29T00:56:12;71072.72;;;-146.40;56.55
13033;BME280;6583;42.632;23.298;2023-04-29T00:58:42;71086.88;;;-146.40;58.15
13033;BME280;6583;42.632;23.298;2023-04-29T01:01:14;71109.13;;;-146.40;57.73
13033;BME280;6583;42.632;23.298;2023-04-29T01:03:41;71125.31;;;-146.40;58.34
13033;BME280;6583;42.632;23.298;2023-04-29T01:06:16;71135.44;;;-146.40;59.41
13033;BME280;6583;42.632;23.298;2023-04-29T01:08:53;71153.66;;;-146.40;59.96
13033;BME280;6583;42.632;23.298;2023-04-29T01:11:29;71159.72;;;-146.40;61.38
13033;BME280;6583;42.632;23.298;2023-04-29T01:14:01;71147.59;;;-146.40;62.15
13033;BME280;6583;42.632;23.298;2023-04-29T01:16:33;71147.59;;;-146.40;62.70
13033;BME280;6583;42.632;23.298;2023-04-29T01:19:11;71137.47;;;-146.40;63.37
13033;BME280;6583;42.632;23.298;2023-04-29T01:21:45;71121.28;;;-146.40;62.80
13033;BME280;6583;42.632;23.298;2023-04-29T01:24:14;71121.28;;;-146.40;62.25
13033;BME280;6583;42.632;23.298;2023-04-29T01:26:43;71109.13;;;-146.40;62.33
13033;BME280;6583;42.632;23.298;2023-04-29T01:29:24;71115.19;;;-146.40;62.18
13033;BME280;6583;42.632;23.298;2023-04-29T01:31:57;71125.31;;;-146.40;61.55
13033;BME280;6583;42.632;23.298;2023-04-29T01:34:33;71129.38;;;-146.40;61.63
13033;BME280;6583;42.632;23.298;2023-04-29T01:37:06;71135.44;;;-146.40;61.58
13033;BME280;6583;42.632;23.298;2023-04-29T01:39:44;71153.66;;;-146.40;62.61
13033;BME280;6583;42.632;23.298;2023-04-29T01:42:17;71161.75;;;-146.40;62.83
13033;BME280;6583;42.632;23.298;2023-04-29T01:44:46;71159.72;;;-146.40;63.38
13033;BME280;6583;42.632;23.298;2023-04-29T01:47:15;71149.59;;;-146.40;63.46
13033;BME280;6583;42.632;23.298;2023-04-29T01:49:42;71139.50;;;-146.40;63.77
13033;BME280;6583;42.632;23.298;2023-04-29T01:52:11;71127.34;;;-146.40;63.23
13033;BME280;6583;42.632;23.298;2023-04-29T01:54:39;71137.47;;;-146.40;63.69
13033;BME280;6583;42.632;23.298;2023-04-29T01:57:05;71141.50;;;-146.40;63.05
13033;BME280;6583;42.632;23.298;2023-04-29T01:59:32;71165.78;;;-146.40;62.74
13033;BME280;6583;42.632;23.298;2023-04-29T02:01:59;71179.97;;;-146.40;63.87
13033;BME280;6583;42.632;23.298;2023-04-29T02:04:25;71181.97;;;-146.40;65.45
13033;BME280;6583;42.632;23.298;2023-04-29T02:06:52;71177.94;;;-146.40;66.61
13033;BME280;6583;42.632;23.298;2023-04-29T02:09:19;71175.91;;;-146.40;66.21
13033;BME280;6583;42.632;23.298;2023-04-29T02:11:47;71171.88;;;-146.40;66.90
13033;BME280;6583;42.632;23.298;2023-04-29T02:14:14;71167.81;;;-146.40;65.55
13033;BME280;6583;42.632;23.298;2023-04-29T02:16:43;71169.84;;;-146.40;65.45
13033;BME280;6583;42.632;23.298;2023-04-29T02:19:09;71171.88;;;-146.40;65.22
13033;BME280;6583;42.632;23.298;2023-04-29T02:21:36;71171.88;;;-146.40;66.18
13033;BME280;6583;42.632;23.298;2023-04-29T02:24:04;71151.63;;;-146.40;66.50
13033;BME280;6583;42.632;23.298;2023-04-29T02:26:31;71137.47;;;-146.40;65.81
13033;BME280;6583;42.632;23.298;2023-04-29T02:28:59;71117.22;;;-146.40;64.57
13033;BME280;6583;42.632;23.298;2023-04-29T02:31:27;71101.03;;;-146.40;63.98
13033;BME280;6583;42.632;23.298;2023-04-29T02:33:54;71097.00;;;-146.40;62.99
13033;BME280;6583;42.632;23.298;2023-04-29T02:36:21;71074.72;;;-146.40;61.96
13033;BME280;6583;42.632;23.298;2023-04-29T02:38:48;71066.63;;;-146.40;61.49
13033;BME280;6583;42.632;23.298;2023-04-29T02:41:15;71046.41;;;-146.40;59.81
13033;BME280;6583;42.632;23.298;2023-04-29T02:43:42;71028.19;;;-146.40;59.50
13033;BME280;6583;42.632;23.298;2023-04-29T02:46:11;71007.97;;;-146.40;58.59
13033;BME280;6583;42.632;23.298;2023-04-29T02:48:37;70999.88;;;-146.40;58.80
13033;BME280;6583;42.632;23.298;2023-04-29T02:51:04;71003.91;;;-146.40;57.94
13033;BME280;6583;42.632;23.298;2023-04-29T02:53:31;71020.09;;;-146.40;57.42
13033;BME280;6583;42.632;23.298;2023-04-29T02:55:58;71034.25;;;-146.40;57.40
13033;BME280;6583;42.632;23.298;2023-04-29T02:58:24;71062.59;;;-146.40;58.10
13033;BME280;6583;42.632;23.298;2023-04-29T03:00:51;71109.13;;;-146.40;59.59
13033;BME280;6583;42.632;23.298;2023-04-29T03:03:19;71137.47;;;-146.40;61.01
13033;BME280;6583;42.632;23.298;2023-04-29T03:05:47;71161.75;;;-146.40;61.99
13033;BME280;6583;42.632;23.298;2023-04-29T03:08:14;71153.66;;;-146.40;62.41
13033;BME280;6583;42.632;23.298;2023-04-29T03:10:41;71145.56;;;-146.40;61.78
13033;BME280;6583;42.632;23.298;2023-04-29T03:13:07;71145.56;;;-146.40;61.79
13033;BME280;6583;42.632;23.298;2023-04-29T03:15:34;71145.56;;;-146.40;62.52
13033;BME280;6583;42.632;23.298;2023-04-29T03:18:01;71167.81;;;-146.40;62.74
13033;BME280;6583;42.632;23.298;2023-04-29T03:20:30;71190.06;;;-146.40;63.29
13033;BME280;6583;42.632;23.298;2023-04-29T03:22:57;71198.16;;;-146.40;63.90
13033;BME280;6583;42.632;23.298;2023-04-29T03:25:25;71188.06;;;-146.40;65.20
13033;BME280;6583;42.632;23.298;2023-04-29T03:27:52;71181.97;;;-146.40;64.67
13033;BME280;6583;42.632;23.298;2023-04-29T03:30:19;71204.25;;;-146.40;64.57
13033;BME280;6583;42.632;23.298;2023-04-29T03:32:46;71232.56;;;-146.40;64.27
13033;BME280;6583;42.632;23.298;2023-04-29T03:35:13;71242.69;;;-146.40;65.14
13033;BME280;6583;42.632;23.298;2023-04-29T03:37:41;71256.84;;;-146.40;66.22
13033;BME280;6583;42.632;23.298;2023-04-29T03:40:09;71283.16;;;-146.40;66.42
13033;BME280;6583;42.632;23.298;2023-04-29T03:42:36;71281.13;;;-146.40;67.54
13033;BME280;6583;42.632;23.298;2023-04-29T03:45:03;71283.16;;;-146.40;68.66
13033;BME280;6583;42.632;23.298;2023-04-29T03:47:30;71287.22;;;-146.40;67.06
13033;BME280;6583;42.632;23.298;2023-04-29T03:49:57;71262.94;;;-146.40;66.82
13033;BME280;6583;42.632;23.298;2023-04-29T03:52:24;71260.91;;;-146.40;66.65
13033;BME280;6583;42.632;23.298;2023-04-29T03:54:52;71250.78;;;-146.40;66.47
13033;BME280;6583;42.632;23.298;2023-04-29T03:57:18;71226.50;;;-146.40;66.76
13033;BME280;6583;42.632;23.298;2023-04-29T03:59:45;71218.41;;;-146.40;66.07
13033;BME280;6583;42.632;23.298;2023-04-29T04:02:14;71204.25;;;-146.40;66.02
13033;BME280;6583;42.632;23.298;2023-04-29T04:04:41;71184.00;;;-146.40;66.30
13033;BME280;6583;42.632;23.298;2023-04-29T04:07:08;71173.88;;;-146.40;66.04
13033;BME280;6583;42.632;23.298;2023-04-29T04:09:35;71169.84;;;-146.40;65.86
13033;BME280;6583;42.632;23.298;2023-04-29T04:12:05;71169.84;;;-146.40;66.98
13033;BME280;6583;42.632;23.298;2023-04-29T04:14:31;71155.69;;;-146.40;66.13
13033;BME280;6583;42.632;23.298;2023-04-29T04:16:58;71145.56;;;-146.40;67.14
13033;BME280;6583;42.632;23.298;2023-04-29T04:19:25;71125.31;;;-146.40;67.02
13033;BME280;6583;42.632;23.298;2023-04-29T04:21:53;71105.09;;;-146.40;66.32
13033;BME280;6583;42.632;23.298;2023-04-29T04:24:20;71086.88;;;-146.40;66.43
13033;BME280;6583;42.632;23.298;2023-04-29T04:26:46;71062.59;;;-146.40;65.27
13033;BME280;6583;42.632;23.298;2023-04-29T04:29:14;71044.38;;;-146.40;63.71
13033;BME280;6583;42.632;23.298;2023-04-29T04:31:41;71020.09;;;-146.40;61.98
13033;BME280;6583;42.632;23.298;2023-04-29T04:34:08;71003.91;;;-146.40;61.64
13033;BME280;6583;42.632;23.298;2023-04-29T04:36:34;70985.69;;;-146.40;60.65
13033;BME280;6583;42.632;23.298;2023-04-29T04:39:01;71003.91;;;-146.40;58.87
13033;BME280;6583;42.632;23.298;2023-04-29T04:41:28;70999.88;;;-146.40;58.20
13033;BME280;6583;42.632;23.298;2023-04-29T04:43:56;70991.78;;;-146.40;58.38
13033;BME280;6583;42.632;23.298;2023-04-29T04:46:24;70975.59;;;-146.40;58.60
13033;BME280;6583;42.632;23.298;2023-04-29T04:48:50;70977.59;;;-146.40;57.93
13033;BME280;6583;42.632;23.298;2023-04-29T04:51:17;70973.56;;;-146.40;58.06
13033;BME280;6583;42.632;23.298;2023-04-29T04:53:44;70965.47;;;-146.40;58.05
13033;BME280;6583;42.632;23.298;2023-04-29T04:56:10;70949.28;;;-146.40;57.76
13033;BME280;6583;42.632;23.298;2023-04-29T04:58:37;70939.16;;;-146.40;57.03
13033;BME280;6583;42.632;23.298;2023-04-29T05:01:04;70929.03;;;-146.40;56.92
13033;BME280;6583;42.632;23.298;2023-04-29T05:03:32;70929.03;;;-146.40;57.19
13033;BME280;6583;42.632;23.298;2023-04-29T05:05:59;70929.03;;;-146.40;56.07
13033;BME280;6583;42.632;23.298;2023-04-29T05:08:26;70908.81;;;-146.40;55.63
13033;BME280;6583;42.632;23.298;2023-04-29T05:10:52;70894.66;;;-146.40;55.67
13033;BME280;6583;42.632;23.298;2023-04-29T05:13:19;70892.63;;;-146.40;54.46
13033;BME280;6583;42.632;23.298;2023-04-29T05:15:46;70888.56;;;-146.40;54.55
13033;BME280;6583;42.632;23.298;2023-04-29T05:18:12;70908.81;;;-146.40;52.38
13033;BME280;6583;42.632;23.298;2023-04-29T05:20:40;70898.69;;;-146.40;53.56
13033;BME280;6583;42.632;23.298;2023-04-29T05:23:07;70910.84;;;-146.40;53.34
13033;BME280;6583;42.632;23.298;2023-04-29T05:25:34;70890.59;;;-146.40;54.46
13033;BME280;6583;42.632;23.298;2023-04-29T05:28:01;70882.50;;;-146.40;54.84
13033;BME280;6583;42.632;23.298;2023-04-29T05:30:28;70882.50;;;-146.40;54.50
13033;BME280;6583;42.632;23.298;2023-04-29T05:32:55;70874.41;;;-146.40;55.09
13033;BME280;6583;42.632;23.298;2023-04-29T05:35:21;70870.38;;;-146.40;55.35
13033;BME280;6583;42.632;23.298;2023-04-29T05:37:49;70874.41;;;-146.40;55.41
13033;BME280;6583;42.632;23.298;2023-04-29T05:40:16;70866.31;;;-146.40;57.05
13033;BME280;6583;42.632;23.298;2023-04-29T05:42:43;70862.28;;;-146.40;56.03
13033;BME280;6583;42.632;23.298;2023-04-29T05:45:10;70862.28;;;-146.40;56.24
13033;BME280;6583;42.632;23.298;2023-04-29T05:47:37;70856.19;;;-146.40;56.90
13033;BME280;6583;42.632;23.298;2023-04-29T05:50:04;70870.38;;;-146.40;58.42
13033;BME280;6583;42.632;23.298;2023-04-29T05:52:31;70884.53;;;-146.40;58.03
13033;BME280;6583;42.632;23.298;2023-04-29T05:54:59;70880.47;;;-146.40;59.09
13033;BME280;6583;42.632;23.298;2023-04-29T05:57:26;70874.41;;;-146.40;58.97
13033;BME280;6583;42.632;23.298;2023-04-29T05:59:52;70868.34;;;-146.40;59.03
13033;BME280;6583;42.632;23.298;2023-04-29T06:02:20;70874.41;;;-146.40;58.69
13033;BME280;6583;42.632;23.298;2023-04-29T06:04:47;70882.50;;;-146.40;59.28
13033;BME280;6583;42.632;23.298;2023-04-29T06:07:14;70884.53;;;-146.40;60.21
13033;BME280;6583;42.632;23.298;2023-04-29T06:09:41;70874.41;;;-146.40;59.28
13033;BME280;6583;42.632;23.298;2023-04-29T06:12:09;70860.25;;;-146.40;60.23
13033;BME280;6583;42.632;23.298;2023-04-29T06:14:36;70821.81;;;-146.40;59.39
13033;BME280;6583;42.632;23.298;2023-04-29T06:17:03;70799.53;;;-146.40;58.24
13033;BME280;6583;42.632;23.298;2023-04-29T06:19:29;70763.13;;;-146.40;57.92
13033;BME280;6583;42.632;23.298;2023-04-29T06:21:57;70728.72;;;-146.40;54.89
13033;BME280;6583;42.632;23.298;2023-04-29T06:24:24;70696.34;;;-146.40;53.53
13033;BME280;6583;42.632;23.298;2023-04-29T06:26:51;70668.03;;;-146.40;54.09
13033;BME280;6583;42.632;23.298;2023-04-29T06:29:19;70637.69;;;-146.40;51.91
13033;BME280;6583;42.632;23.298;2023-04-29T06:31:45;70619.47;;;-146.40;50.50
13033;BME280;6583;42.632;23.298;2023-04-29T06:34:12;70603.28;;;-146.40;50.25
13033;BME280;6583;42.632;23.298;2023-04-29T06:36:39;70574.97;;;-146.40;48.37
13033;BME280;6583;42.632;23.298;2023-04-29T06:39:05;70558.78;;;-146.40;47.47
13033;BME280;6583;42.632;23.298;2023-04-29T06:41:32;70546.63;;;-146.40;45.19
13033;BME280;6583;42.632;23.298;2023-04-29T06:43:59;70542.59;;;-146.40;45.33
13033;BME280;6583;42.632;23.298;2023-04-29T06:46:27;70532.47;;;-146.40;45.02
13033;BME280;6583;42.632;23.298;2023-04-29T06:48:54;70526.41;;;-146.40;43.89
13033;BME280;6583;42.632;23.298;2023-04-29T06:51:21;70526.41;;;-146.40;43.73
13033;BME280;6583;42.632;23.298;2023-04-29T06:53:49;70550.69;;;-146.40;43.79
13033;BME280;6583;42.632;23.298;2023-04-29T06:56:15;70522.34;;;-146.40;42.98
13033;BME280;6583;42.632;23.298;2023-04-29T06:58:42;70512.25;;;-146.40;44.20
13033;BME280;6583;42.632;23.298;2023-04-29T07:01:08;70489.97;;;-146.40;43.29
13033;BME280;6583;42.632;23.298;2023-04-29T07:03:37;70502.13;;;-146.40;43.19
13033;BME280;6583;42.632;23.298;2023-04-29T07:06:03;70506.16;;;-146.40;42.69
13033;BME280;6583;42.632;23.298;2023-04-29T07:08:30;70500.09;;;-146.40;42.42
13033;BME280;6583;42.632;23.298;2023-04-29T07:10:58;70471.78;;;-146.40;43.19
13033;BME280;6583;42.632;23.298;2023-04-29T07:13:25;70439.41;;;-146.40;43.41
13033;BME280;6583;42.632;23.298;2023-04-29T07:15:52;70405.00;;;-146.40;42.01
13033;BME280;6583;42.632;23.298;2023-04-29T07:18:18;70380.72;;;-146.40;40.77
13033;BME280;6583;42.632;23.298;2023-04-29T07:20:46;70409.06;;;-146.40;40.97
13033;BME280;6583;42.632;23.298;2023-04-29T07:23:15;70370.63;;;-146.40;41.00
13033;BME280;6583;42.632;23.298;2023-04-29T07:25:41;70354.44;;;-146.40;40.02
13033;BME280;6583;42.632;23.298;2023-04-29T07:28:08;70340.28;;;-146.40;39.97
13033;BME280;6583;42.632;23.298;2023-04-29T07:30:35;70328.13;;;-146.40;39.45
13033;BME280;6583;42.632;23.298;2023-04-29T07:33:02;70313.97;;;-146.40;38.92
13033;BME280;6583;42.632;23.298;2023-04-29T07:35:28;70332.19;;;-146.40;39.03
13033;BME280;6583;42.632;23.298;2023-04-29T07:37:57;70311.94;;;-146.40;38.75
13033;BME280;6583;42.632;23.298;2023-04-29T07:40:23;70320.03;;;-146.40;38.75
13033;BME280;6583;42.632;23.298;2023-04-29T07:42:50;70287.66;;;-146.40;38.30
13033;BME280;6583;42.632;23.298;2023-04-29T07:45:17;70279.56;;;-146.40;38.38
13033;BME280;6583;42.632;23.298;2023-04-29T07:47:43;70263.38;;;-146.40;38.95
13033;BME280;6583;42.632;23.298;2023-04-29T07:50:11;70245.19;;;-146.40;38.27
13033;BME280;6583;42.632;23.298;2023-04-29T07:52:38;70226.97;;;-146.40;39.04
13033;BME280;6583;42.632;23.298;2023-04-29T07:55:07;70218.88;;;-146.40;39.35
13033;BME280;6583;42.632;23.298;2023-04-29T07:57:33;70251.25;;;-146.40;39.27
13033;BME280;6583;42.632;23.298;2023-04-29T08:00:01;70245.19;;;-146.40;39.37
13033;BME280;6583;42.632;23.298;2023-04-29T08:02:28;70231.03;;;-146.40;38.11
13033;BME280;6583;42.632;23.298;2023-04-29T08:04:54;70218.88;;;-146.40;38.67
13033;BME280;6583;42.632;23.298;2023-04-29T08:07:21;70198.66;;;-146.40;38.71
13033;BME280;6583;42.632;23.298;2023-04-29T08:09:47;70190.56;;;-146.40;38.39
13033;BME280;6583;42.632;23.298;2023-04-29T08:12:16;70210.78;;;-146.40;37.55
13033;BME280;6583;42.632;23.298;2023-04-29T08:14:42;70194.59;;;-146.40;37.89
13033;BME280;6583;42.632;23.298;2023-04-29T08:17:09;70182.47;;;-146.40;38.15
13033;BME280;6583;42.632;23.298;2023-04-29T08:19:35;70202.69;;;-146.40;37.06
13033;BME280;6583;42.632;23.298;2023-04-29T08:22:02;70202.69;;;-146.40;37.70
13033;BME280;6583;42.632;23.298;2023-04-29T08:24:29;70202.69;;;-146.40;36.91
13033;BME280;6583;42.632;23.298;2023-04-29T08:26:57;70218.88;;;-146.40;37.64
13033;BME280;6583;42.632;23.298;2023-04-29T08:29:25;70212.81;;;-146.40;37.11
13033;BME280;6583;42.632;23.298;2023-04-29T08:31:52;70198.66;;;-146.40;37.53
13033;BME280;6583;42.632;23.298;2023-04-29T08:34:19;70182.47;;;-146.40;36.20
13033;BME280;6583;42.632;23.298;2023-04-29T08:36:45;70184.50;;;-146.40;36.69
13033;BME280;6583;42.632;23.298;2023-04-29T08:39:12;70158.19;;;-146.40;37.29
13033;BME280;6583;42.632;23.298;2023-04-29T08:41:39;70129.88;;;-146.40;36.20
13033;BME280;6583;42.632;23.298;2023-04-29T08:44:08;70123.81;;;-146.40;36.25
13033;BME280;6583;42.632;23.298;2023-04-29T08:46:37;70107.63;;;-146.40;35.85
13033;BME280;6583;42.632;23.298;2023-04-29T08:49:05;70091.44;;;-146.40;36.69
13033;BME280;6583;42.632;23.298;2023-04-29T08:51:32;70079.28;;;-146.40;36.03
13033;BME280;6583;42.632;23.298;2023-04-29T08:53:59;70061.09;;;-146.40;35.42
13033;BME280;6583;42.632;23.298;2023-04-29T08:56:27;70057.03;;;-146.40;34.63
13033;BME280;6583;42.632;23.298;2023-04-29T08:58:56;70059.06;;;-146.40;34.00
13033;BME280;6583;42.632;23.298;2023-04-29T09:01:26;70067.16;;;-146.40;33.79
13033;BME280;6583;42.632;23.298;2023-04-29T09:04:03;70061.09;;;-146.40;33.77
13033;BME280;6583;42.632;23.298;2023-04-29T09:06:33;70071.22;;;-146.40;34.93
13033;BME280;6583;42.632;23.298;2023-04-29T09:09:00;70061.09;;;-146.40;35.11
13033;BME280;6583;42.632;23.298;2023-04-29T09:11:29;70077.28;;;-146.40;34.12
13033;BME280;6583;42.632;23.298;2023-04-29T09:13:58;70067.16;;;-146.40;34.46
13033;BME280;6583;42.632;23.298;2023-04-29T09:16:25;70085.38;;;-146.40;35.00
13033;BME280;6583;42.632;23.298;2023-04-29T09:18:52;70081.31;;;-146.40;34.89
13033;BME280;6583;42.632;23.298;2023-04-29T09:21:21;70077.28;;;-146.40;35.55
13033;BME280;6583;42.632;23.298;2023-04-29T09:23:50;70059.06;;;-146.40;35.00
13033;BME280;6583;42.632;23.298;2023-04-29T09:26:17;70046.94;;;-146.40;34.39
13033;BME280;6583;42.632;23.298;2023-04-29T09:28:45;70040.88;;;-146.40;34.69
13033;BME280;6583;42.632;23.298;2023-04-29T09:31:12;70038.84;;;-146.40;34.03
13033;BME280;6583;42.632;23.298;2023-04-29T09:33:49;70028.72;;;-146.40;34.77
13033;BME280;6583;42.632;23.298;2023-04-29T09:36:39;70032.78;;;-146.40;32.74
13033;BME280;6583;42.632;23.298;2023-04-29T09:39:06;70044.91;;;-146.40;33.74
13033;BME280;6583;42.632;23.298;2023-04-29T09:41:38;70061.09;;;-146.40;33.85
13033;BME280;6583;42.632;23.298;2023-04-29T09:44:06;70046.94;;;-146.40;35.09
13033;BME280;6583;42.632;23.298;2023-04-29T09:46:33;70048.97;;;-146.40;35.25
13033;BME280;6583;42.632;23.298;2023-04-29T09:49:01;70030.75;;;-146.40;35.11
13033;BME280;6583;42.632;23.298;2023-04-29T09:51:28;70010.53;;;-146.40;34.05
13033;BME280;6583;42.632;23.298;2023-04-29T09:53:59;70002.44;;;-146.40;34.75
13033;BME280;6583;42.632;23.298;2023-04-29T09:56:26;70014.56;;;-146.40;35.17
13033;BME280;6583;42.632;23.298;2023-04-29T09:58:55;70016.59;;;-146.40;34.87
13033;BME280;6583;42.632;23.298;2023-04-29T10:01:25;70012.53;;;-146.40;35.50
13033;BME280;6583;42.632;23.298;2023-04-29T10:03:54;69992.31;;;-146.40;35.76
13033;BME280;6583;42.632;23.298;2023-04-29T10:06:22;69980.19;;;-146.40;36.00
13033;BME280;6583;42.632;23.298;2023-04-29T10:08:50;69964.00;;;-146.40;35.50
13033;BME280;6583;42.632;23.298;2023-04-29T10:11:19;69943.75;;;-146.40;36.18
13033;BME280;6583;42.632;23.298;2023-04-29T10:13:47;69941.75;;;-146.40;35.92
13033;BME280;6583;42.632;23.298;2023-04-29T10:16:24;69923.53;;;-146.40;34.35
13033;BME280;6583;42.632;23.298;2023-04-29T10:18:54;69899.25;;;-146.40;35.58
13033;BME280;6583;42.632;23.298;2023-04-29T10:21:26;69891.16;;;-146.40;33.97
13033;BME280;6583;42.632;23.298;2023-04-29T10:23:56;69899.25;;;-146.40;34.47
13033;BME280;6583;42.632;23.298;2023-04-29T10:26:25;69921.50;;;-146.40;34.09
13033;BME280;6583;42.632;23.298;2023-04-29T10:28:54;69921.50;;;-146.40;34.44
13033;BME280;6583;42.632;23.298;2023-04-29T10:31:21;69935.66;;;-146.40;34.35
13033;BME280;6583;42.632;23.298;2023-04-29T10:33:48;69947.81;;;-146.40;34.72
13033;BME280;6583;42.632;23.298;2023-04-29T10:36:16;69939.72;;;-146.40;36.00
13033;BME280;6583;42.632;23.298;2023-04-29T10:38:47;69943.75;;;-146.40;35.32
13033;BME280;6583;42.632;23.298;2023-04-29T10:41:19;69931.63;;;-146.40;35.65
13033;BME280;6583;42.632;23.298;2023-04-29T10:43:49;69937.69;;;-146.40;35.55
13033;BME280;6583;42.632;23.298;2023-04-29T10:46:16;69935.66;;;-146.40;35.33
13033;BME280;6583;42.632;23.298;2023-04-29T10:48:43;69955.91;;;-146.40;33.89
13033;BME280;6583;42.632;23.298;2023-04-29T10:51:10;69943.75;;;-146.40;33.86
13033;BME280;6583;42.632;23.298;2023-04-29T10:53:57;69949.84;;;-146.40;34.19
13033;BME280;6583;42.632;23.298;2023-04-29T10:56:34;69931.63;;;-146.40;34.41
13033;BME280;6583;42.632;23.298;2023-04-29T10:59:03;69919.50;;;-146.40;33.79
13033;BME280;6583;42.632;23.298;2023-04-29T11:01:44;69931.63;;;-146.40;33.74
13033;BME280;6583;42.632;23.298;2023-04-29T11:04:11;69917.47;;;-146.40;35.25
13033;BME280;6583;42.632;23.298;2023-04-29T11:06:41;69925.56;;;-146.40;33.98
13033;BME280;6583;42.632;23.298;2023-04-29T11:09:10;69921.50;;;-146.40;35.13
13033;BME280;6583;42.632;23.298;2023-04-29T11:14:29;69911.41;;;-146.40;34.86
13033;BME280;6583;42.632;23.298;2023-04-29T11:16:57;69891.16;;;-146.40;36.02
13033;BME280;6583;42.632;23.298;2023-04-29T11:19:30;69897.25;;;-146.40;33.50
13033;BME280;6583;42.632;23.298;2023-04-29T11:22:08;69921.50;;;-146.40;33.03
13033;BME280;6583;42.632;23.298;2023-04-29T11:24:36;69951.84;;;-146.40;32.77
13033;BME280;6583;42.632;23.298;2023-04-29T11:27:14;69927.59;;;-146.40;34.55
13033;BME280;6583;42.632;23.298;2023-04-29T11:29:44;69927.59;;;-146.40;34.69
13033;BME280;6583;42.632;23.298;2023-04-29T11:32:10;69947.81;;;-146.40;32.86
13033;BME280;6583;42.632;23.298;2023-04-29T11:34:37;69933.66;;;-146.40;35.05
13033;BME280;6583;42.632;23.298;2023-04-29T11:37:04;69937.69;;;-146.40;34.43
13033;BME280;6583;42.632;23.298;2023-04-29T11:39:32;69937.69;;;-146.40;33.33
13033;BME280;6583;42.632;23.298;2023-04-29T11:42:03;69941.75;;;-146.40;33.30
13033;BME280;6583;42.632;23.298;2023-04-29T11:44:30;69929.59;;;-146.40;33.35
13033;BME280;6583;42.632;23.298;2023-04-29T11:47:02;69935.66;;;-146.40;33.51
13033;BME280;6583;42.632;23.298;2023-04-29T11:49:29;69935.66;;;-146.40;31.89
13033;BME280;6583;42.632;23.298;2023-04-29T11:51:56;69964.00;;;-146.40;32.80
13033;BME280;6583;42.632;23.298;2023-04-29T11:54:24;69951.84;;;-146.40;34.10
13033;BME280;6583;42.632;23.298;2023-04-29T11:56:52;69945.78;;;-146.40;32.52
13033;BME280;6583;42.632;23.298;2023-04-29T11:59:19;69951.84;;;-146.40;34.04
13033;BME280;6583;42.632;23.298;2023-04-29T12:01:46;69947.81;;;-146.40;33.46
13033;BME280;6583;42.632;23.298;2023-04-29T12:04:14;69951.84;;;-146.40;33.83
13033;BME280;6583;42.632;23.298;2023-04-29T12:06:41;69957.94;;;-146.40;33.30
13033;BME280;6583;42.632;23.298;2023-04-29T12:09:08;69947.81;;;-146.40;33.77
13033;BME280;6583;42.632;23.298;2023-04-29T12:11:36;69966.00;;;-146.40;32.87
13033;BME280;6583;42.632;23.298;2023-04-29T12:14:03;69972.09;;;-146.40;33.69
13033;BME280;6583;42.632;23.298;2023-04-29T12:16:31;69980.19;;;-146.40;33.17
13033;BME280;6583;42.632;23.298;2023-04-29T12:18:58;69972.09;;;-146.40;34.05
13033;BME280;6583;42.632;23.298;2023-04-29T12:21:26;69972.09;;;-146.40;34.00
13033;BME280;6583;42.632;23.298;2023-04-29T12:23:53;69961.97;;;-146.40;34.19
13033;BME280;6583;42.632;23.298;2023-04-29T12:26:20;69968.03;;;-146.40;35.08
13033;BME280;6583;42.632;23.298;2023-04-29T12:28:48;69955.91;;;-146.40;35.60
13033;BME280;6583;42.632;23.298;2023-04-29T12:31:19;69943.75;;;-146.40;36.25
13033;BME280;6583;42.632;23.298;2023-04-29T12:33:45;69931.63;;;-146.40;36.64
13033;BME280;6583;42.632;23.298;2023-04-29T12:36:15;69931.63;;;-146.40;35.78
13033;BME280;6583;42.632;23.298;2023-04-29T12:38:46;69925.56;;;-146.40;36.50
13033;BME280;6583;42.632;23.298;2023-04-29T12:41:13;69925.56;;;-146.40;36.30
13033;BME280;6583;42.632;23.298;2023-04-29T12:43:41;69913.41;;;-146.40;36.43
13033;BME280;6583;42.632;23.298;2023-04-29T12:46:09;69915.44;;;-146.40;35.71
13033;BME280;6583;42.632;23.298;2023-04-29T12:48:37;69905.31;;;-146.40;36.13